SHT3L EGCC-EGLL
Flight info
| Callsign | SHT3L |
|---|---|
| Flight time | N/A |
| Altitude | 19000 |
| Route | SANBA N859 HON |
| Aircraft | A320/M-SDE3FGHIRWY/LB1 |
Departure
| Time | N/A |
|---|---|
| Airport | Manchester Airport (EGCC) |
Arrival
| Time | 2026-05-01 14:54 |
|---|---|
| Airport | London Heathrow Airport (EGLL) |
| Time | Latitude | Longitude | Altitude | Speed | Heading |
|---|---|---|---|---|---|
| 2026-05-01 14:27 | 52.35188 | -1.65773 | 19141 ft | 320 kts | 321° |
| 2026-05-01 14:27 | 52.37093 | -1.67571 | 19084 ft | 322 kts | 338° |
| 2026-05-01 14:28 | 52.41450 | -1.67317 | 18490 ft | 319 kts | 28° |
| 2026-05-01 14:28 | 52.43230 | -1.65251 | 18137 ft | 312 kts | 51° |
| 2026-05-01 14:28 | 52.44406 | -1.62341 | 17790 ft | 303 kts | 73° |
| 2026-05-01 14:28 | 52.44871 | -1.59056 | 17458 ft | 292 kts | 94° |
| 2026-05-01 14:29 | 52.44641 | -1.55823 | 17115 ft | 281 kts | 113° |
| 2026-05-01 14:29 | 52.43806 | -1.53005 | 16789 ft | 272 kts | 131° |
| 2026-05-01 14:30 | 52.39580 | -1.47241 | 15830 ft | 261 kts | 149° |
| 2026-05-01 14:30 | 52.38082 | -1.45564 | 15522 ft | 260 kts | 149° |
| 2026-05-01 14:30 | 52.36590 | -1.43894 | 15236 ft | 259 kts | 150° |
| 2026-05-01 14:31 | 52.33174 | -1.42646 | 14209 ft | 269 kts | 192° |
| 2026-05-01 14:31 | 52.31263 | -1.43337 | 13838 ft | 288 kts | 192° |
| 2026-05-01 14:31 | 52.29289 | -1.44028 | 13463 ft | 291 kts | 191° |
| 2026-05-01 14:31 | 52.27306 | -1.44708 | 13179 ft | 291 kts | 191° |
| 2026-05-01 14:32 | 52.25306 | -1.45123 | 12894 ft | 290 kts | 182° |
| 2026-05-01 14:32 | 52.23296 | -1.44961 | 12607 ft | 289 kts | 173° |
| 2026-05-01 14:32 | 52.21334 | -1.44237 | 12325 ft | 289 kts | 163° |
| 2026-05-01 14:32 | 52.19482 | -1.42973 | 12049 ft | 289 kts | 154° |
| 2026-05-01 14:33 | 52.17798 | -1.41186 | 12130 ft | 292 kts | 144° |
| 2026-05-01 14:33 | 52.16240 | -1.39037 | 12138 ft | 294 kts | 142° |
| 2026-05-01 14:33 | 52.14686 | -1.36867 | 12138 ft | 294 kts | 142° |
| 2026-05-01 14:33 | 52.13128 | -1.34702 | 12138 ft | 294 kts | 142° |
| 2026-05-01 14:34 | 52.11574 | -1.32548 | 12139 ft | 294 kts | 142° |
| 2026-05-01 14:34 | 52.10014 | -1.30387 | 12138 ft | 294 kts | 142° |
| 2026-05-01 14:34 | 52.08456 | -1.28223 | 12137 ft | 294 kts | 142° |
| 2026-05-01 14:34 | 52.06901 | -1.26064 | 12138 ft | 294 kts | 142° |
| 2026-05-01 14:35 | 52.05343 | -1.23904 | 12137 ft | 294 kts | 142° |
| 2026-05-01 14:35 | 52.03786 | -1.21747 | 12136 ft | 295 kts | 142° |
| 2026-05-01 14:35 | 52.02224 | -1.19586 | 12137 ft | 295 kts | 142° |
| 2026-05-01 14:35 | 52.00663 | -1.17426 | 12138 ft | 295 kts | 142° |
| 2026-05-01 14:36 | 51.99119 | -1.15295 | 12134 ft | 295 kts | 142° |
| 2026-05-01 14:36 | 51.97556 | -1.13135 | 12133 ft | 295 kts | 142° |
| 2026-05-01 14:36 | 51.95993 | -1.10976 | 12134 ft | 295 kts | 142° |
| 2026-05-01 14:36 | 51.94412 | -1.08789 | 12133 ft | 295 kts | 142° |
| 2026-05-01 14:37 | 51.92871 | -1.06660 | 12135 ft | 295 kts | 142° |
| 2026-05-01 14:37 | 51.91286 | -1.04477 | 12135 ft | 295 kts | 142° |
| 2026-05-01 14:37 | 51.89775 | -1.02399 | 12130 ft | 282 kts | 143° |
| 2026-05-01 14:37 | 51.88320 | -1.00392 | 12131 ft | 268 kts | 143° |
| 2026-05-01 14:38 | 51.86919 | -0.98459 | 12085 ft | 256 kts | 143° |
| 2026-05-01 14:38 | 51.85625 | -0.96557 | 11814 ft | 255 kts | 135° |
| 2026-05-01 14:38 | 51.84648 | -0.94158 | 11562 ft | 257 kts | 120° |
| 2026-05-01 14:38 | 51.83864 | -0.91572 | 11304 ft | 255 kts | 121° |
| 2026-05-01 14:39 | 51.83084 | -0.89011 | 11075 ft | 253 kts | 121° |
| 2026-05-01 14:39 | 51.82311 | -0.86477 | 10836 ft | 251 kts | 121° |
| 2026-05-01 14:39 | 51.81541 | -0.83957 | 10593 ft | 250 kts | 121° |
| 2026-05-01 14:39 | 51.80767 | -0.81426 | 10357 ft | 260 kts | 121° |
| 2026-05-01 14:40 | 51.79918 | -0.78692 | 10118 ft | 278 kts | 121° |
| 2026-05-01 14:40 | 51.79045 | -0.75888 | 9868 ft | 281 kts | 121° |
| 2026-05-01 14:40 | 51.78167 | -0.73070 | 9599 ft | 280 kts | 121° |
| 2026-05-01 14:40 | 51.77291 | -0.70263 | 9344 ft | 280 kts | 121° |
| 2026-05-01 14:41 | 51.76413 | -0.67467 | 9081 ft | 279 kts | 121° |
| 2026-05-01 14:41 | 51.75532 | -0.64685 | 8822 ft | 278 kts | 121° |
| 2026-05-01 14:41 | 51.74653 | -0.61935 | 8577 ft | 277 kts | 121° |
| 2026-05-01 14:41 | 51.73772 | -0.59180 | 8325 ft | 276 kts | 121° |
| 2026-05-01 14:42 | 51.72882 | -0.56450 | 8147 ft | 273 kts | 123° |
| 2026-05-01 14:42 | 51.71919 | -0.53901 | 8136 ft | 259 kts | 126° |
| 2026-05-01 14:42 | 51.70984 | -0.51502 | 8135 ft | 246 kts | 126° |
| 2026-05-01 14:42 | 51.70098 | -0.49228 | 8137 ft | 233 kts | 126° |
| 2026-05-01 14:43 | 51.69264 | -0.47066 | 8137 ft | 223 kts | 126° |
| 2026-05-01 14:43 | 51.68450 | -0.44944 | 8139 ft | 222 kts | 126° |
| 2026-05-01 14:43 | 51.67639 | -0.42828 | 8138 ft | 222 kts | 126° |
| 2026-05-01 14:43 | 51.66826 | -0.40715 | 8139 ft | 222 kts | 126° |
| 2026-05-01 14:44 | 51.66010 | -0.38602 | 8141 ft | 223 kts | 126° |
| 2026-05-01 14:44 | 51.64276 | -0.34151 | 7744 ft | 239 kts | 126° |
| 2026-05-01 14:44 | 51.63390 | -0.31887 | 7431 ft | 239 kts | 126° |
| 2026-05-01 14:45 | 51.62505 | -0.29636 | 7177 ft | 237 kts | 126° |
| 2026-05-01 14:45 | 51.60739 | -0.25155 | 6947 ft | 236 kts | 126° |
| 2026-05-01 14:45 | 51.59861 | -0.22923 | 6694 ft | 236 kts | 126° |
| 2026-05-01 14:46 | 51.59282 | -0.21452 | 6493 ft | 236 kts | 126° |
| 2026-05-01 14:46 | 51.57533 | -0.17029 | 5885 ft | 234 kts | 126° |
| 2026-05-01 14:46 | 51.56658 | -0.14830 | 5546 ft | 234 kts | 126° |
| 2026-05-01 14:47 | 51.55772 | -0.12630 | 5214 ft | 234 kts | 126° |
| 2026-05-01 14:47 | 51.54892 | -0.10438 | 4926 ft | 233 kts | 127° |
| 2026-05-01 14:47 | 51.54033 | -0.08264 | 4674 ft | 229 kts | 126° |
| 2026-05-01 14:48 | 51.52257 | -0.04337 | 4431 ft | 204 kts | 150° |
| 2026-05-01 14:48 | 51.50986 | -0.03708 | 4309 ft | 189 kts | 180° |
| 2026-05-01 14:48 | 51.48709 | -0.05136 | 4078 ft | 177 kts | 224° |
| 2026-05-01 14:49 | 51.47802 | -0.08784 | 3870 ft | 186 kts | 266° |
| 2026-05-01 14:49 | 51.47808 | -0.12875 | 3682 ft | 176 kts | 264° |
| 2026-05-01 14:50 | 51.47808 | -0.16065 | 3404 ft | 168 kts | 265° |
| 2026-05-01 14:50 | 51.47805 | -0.20458 | 2851 ft | 171 kts | 265° |
| 2026-05-01 14:51 | 51.47803 | -0.22382 | 2620 ft | 173 kts | 265° |
| 2026-05-01 14:51 | 51.47800 | -0.26164 | 2188 ft | 165 kts | 265° |
| 2026-05-01 14:52 | 51.47795 | -0.29762 | 1754 ft | 159 kts | 264° |
| 2026-05-01 14:52 | 51.47792 | -0.31530 | 1558 ft | 159 kts | 265° |
| 2026-05-01 14:52 | 51.47787 | -0.35020 | 1136 ft | 148 kts | 263° |
| 2026-05-01 14:53 | 51.47784 | -0.36613 | 944 ft | 139 kts | 263° |
| 2026-05-01 14:53 | 51.47780 | -0.38171 | 761 ft | 139 kts | 263° |
| 2026-05-01 14:53 | 51.47776 | -0.39702 | 573 ft | 138 kts | 265° |
| 2026-05-01 14:53 | 51.47771 | -0.41243 | 424 ft | 137 kts | 264° |
| 2026-05-01 14:54 | 51.47768 | -0.42749 | 283 ft | 134 kts | 263° |
| 2026-05-01 14:54 | 51.47761 | -0.44247 | 90 ft | 130 kts | 265° |
| 2026-05-01 14:54 | 51.47762 | -0.45392 | 86 ft | 63 kts | 269° |
| 2026-05-01 14:54 | 51.47736 | -0.45812 | 88 ft | 34 kts | 244° |
| 2026-05-01 14:55 | 51.47618 | -0.46017 | 87 ft | 10 kts | 225° |
| 2026-05-01 14:55 | 51.47595 | -0.46126 | 91 ft | 12 kts | 266° |
| 2026-05-01 14:55 | 51.47597 | -0.46270 | 86 ft | 14 kts | 266° |
| 2026-05-01 14:55 | 51.47591 | -0.46441 | 86 ft | 17 kts | 268° |
| 2026-05-01 14:56 | 51.47589 | -0.46648 | 86 ft | 20 kts | 271° |
| 2026-05-01 14:56 | 51.47585 | -0.46887 | 86 ft | 22 kts | 265° |
| 2026-05-01 14:56 | 51.47579 | -0.47140 | 90 ft | 24 kts | 270° |
| 2026-05-01 14:56 | 51.47578 | -0.47424 | 88 ft | 27 kts | 269° |
| 2026-05-01 14:57 | 51.47573 | -0.47739 | 86 ft | 30 kts | 270° |
| 2026-05-01 14:57 | 51.47578 | -0.48383 | 86 ft | 29 kts | 269° |
| 2026-05-01 14:57 | 51.47575 | -0.48673 | 86 ft | 26 kts | 270° |
| 2026-05-01 14:58 | 51.47564 | -0.48913 | 90 ft | 10 kts | 223° |
| 2026-05-01 14:58 | 51.47488 | -0.48950 | 88 ft | 12 kts | 192° |
| 2026-05-01 14:58 | 51.47430 | -0.48954 | 86 ft | 2 kts | 182° |
| 2026-05-01 14:58 | 51.47420 | -0.48955 | 90 ft | 2 kts | 183° |
| 2026-05-01 14:59 | 51.47416 | -0.48955 | 90 ft | 0 kts | 182° |